Teddy Meyer — WDF9635 — position and weather

sailwx.info

Track history (hours):
 
Tides and Currents Weather Stations Pressure Air Temp Water Temp Dewpoint Dewpoint Depression Visibility Wind Speed Wind Dir Waves Ship Positions

Teddy Meyer

Owner: LeBeouf Bros. Towing, LLC, Houma, LA. More information available from US FCC via Universal Licensing System and Coast Guard Vessel Documentation Center.

Last reported at 2017-Feb-19 04:04 UTC. Time now 2017-Feb-20 11:21 UTC.
Position N 29°50' W 093°59'.

; draft 3 m.

MMSI: 367507220.

Date/timePositionNaut miles runAvg speedWind from/ knotsBaromVisibWave heightAir tempDewpointWater temp
2017-Feb-19 04:04N 29°50' W 093°59'  
2017-Feb-16 14:33N 29°60' W 093°55'0 0.0
2017-Feb-16 13:33N 29°60' W 093°55'0 0.0
2017-Feb-16 12:21N 29°60' W 093°55'  
2017-Feb-13 19:33N 29°33' W 094°54'8 8.0
2017-Feb-13 18:34N 29°40' W 094°59'7 6.9
2017-Feb-13 17:33N 29°45' W 095°04'5 5.1
2017-Feb-13 16:33N 29°45' W 095°10'3 0.8
2017-Feb-13 12:32N 29°44' W 095°13'0 0.0
2017-Feb-13 11:31N 29°44' W 095°13'0 0.0
2017-Feb-13 09:21N 29°44' W 095°13'0 0.0
2017-Feb-13 08:33N 29°44' W 095°13'0 0.0
2017-Feb-13 07:30N 29°44' W 095°13'0 0.0
2017-Feb-13 06:22N 29°44' W 095°13'0 0.0
2017-Feb-13 05:21N 29°44' W 095°13'0 0.0
2017-Feb-13 03:17N 29°44' W 095°13'0 0.0
2017-Feb-13 02:31N 29°44' W 095°13'0 0.0
2017-Feb-13 01:31N 29°44' W 095°13'0 0.0
2017-Feb-13 00:23N 29°44' W 095°13'7 2.2
2017-Feb-12 21:10N 29°46' W 095°05'5 6.5
2017-Feb-12 20:24N 29°42' W 095°01'1 0.7
2017-Feb-12 18:28N 29°42' W 095°03'0 0.0
2017-Feb-12 17:32N 29°42' W 095°03'0 0.0
2017-Feb-11 18:26N 29°42' W 095°03'0 0.0
2017-Feb-11 10:27N 29°42' W 095°03'0 0.0
2017-Feb-11 09:27N 29°42' W 095°03'0 0.0
2017-Feb-11 08:26N 29°42' W 095°03'0 0.0
2017-Feb-11 07:23N 29°42' W 095°03'0 0.0
2017-Feb-11 06:28N 29°42' W 095°03'0 0.0
2017-Feb-11 02:09N 29°42' W 095°03'0 0.0
2017-Feb-11 01:29N 29°42' W 095°03'0 0.0
2017-Feb-11 00:19N 29°42' W 095°03'0 0.0
2017-Feb-10 23:33N 29°42' W 095°03'0 0.0
2017-Feb-10 22:34N 29°42' W 095°03'0 0.0
2017-Feb-10 21:33N 29°42' W 095°03'0 0.0
2017-Feb-10 20:34N 29°42' W 095°03'0 0.0
2017-Feb-10 19:34N 29°42' W 095°03'0 0.0
2017-Feb-10 18:34N 29°42' W 095°03'0 0.0
2017-Feb-10 17:34N 29°42' W 095°03'0 0.0
2017-Feb-10 16:33N 29°42' W 095°03'0 0.0
2017-Feb-10 15:34N 29°42' W 095°03'0 0.0
2017-Feb-10 14:34N 29°42' W 095°03'0 0.0
2017-Feb-10 13:34N 29°42' W 095°03'0 0.0
2017-Feb-10 05:22N 29°42' W 095°03'0 0.0
2017-Feb-10 00:15N 29°42' W 095°03'0 0.0
2017-Feb-09 23:33N 29°42' W 095°03'0 0.0
2017-Feb-09 22:33N 29°42' W 095°03'0 0.0
2017-Feb-09 21:33N 29°42' W 095°03'0 0.0
2017-Feb-09 20:33N 29°42' W 095°03'0 0.0
2017-Feb-09 19:33N 29°42' W 095°03'0 0.0
2017-Feb-09 18:33N 29°42' W 095°03'0 0.0
2017-Feb-09 17:33N 29°42' W 095°03'0 0.0
2017-Feb-09 16:33N 29°42' W 095°03'0 0.0
2017-Feb-09 15:33N 29°42' W 095°03'0 0.0
2017-Feb-09 14:33N 29°42' W 095°03'0 0.0
2017-Feb-09 13:34N 29°42' W 095°03'  
Track history (hours):
 
Tides and Currents Weather Stations Pressure Air Temp Water Temp Dewpoint Dewpoint Depression Visibility Wind Speed Wind Dir Waves Ship Positions

Teddy Meyer

Owner: LeBeouf Bros. Towing, LLC, Houma, LA. More information available from US FCC via Universal Licensing System and Coast Guard Vessel Documentation Center.

Last reported at 2017-Feb-19 04:04 UTC. Time now 2017-Feb-20 11:21 UTC.
Position N 29°50' W 093°59'.

; draft 3 m.

MMSI: 367507220.

Date/timePositionNaut miles runAvg speedWind from/ knotsBaromVisibWave heightAir tempDewpointWater temp
2017-Feb-19 04:04N 29°50' W 093°59'  
2017-Feb-16 14:33N 29°60' W 093°55'0 0.0
2017-Feb-16 13:33N 29°60' W 093°55'0 0.0
2017-Feb-16 12:21N 29°60' W 093°55'  
2017-Feb-13 19:33N 29°33' W 094°54'8 8.0
2017-Feb-13 18:34N 29°40' W 094°59'7 6.9
2017-Feb-13 17:33N 29°45' W 095°04'5 5.1
2017-Feb-13 16:33N 29°45' W 095°10'3 0.8
2017-Feb-13 12:32N 29°44' W 095°13'0 0.0
2017-Feb-13 11:31N 29°44' W 095°13'0 0.0
2017-Feb-13 09:21N 29°44' W 095°13'0 0.0
2017-Feb-13 08:33N 29°44' W 095°13'0 0.0
2017-Feb-13 07:30N 29°44' W 095°13'0 0.0
2017-Feb-13 06:22N 29°44' W 095°13'0 0.0
2017-Feb-13 05:21N 29°44' W 095°13'0 0.0
2017-Feb-13 03:17N 29°44' W 095°13'0 0.0
2017-Feb-13 02:31N 29°44' W 095°13'0 0.0
2017-Feb-13 01:31N 29°44' W 095°13'0 0.0
2017-Feb-13 00:23N 29°44' W 095°13'7 2.2
2017-Feb-12 21:10N 29°46' W 095°05'5 6.5
2017-Feb-12 20:24N 29°42' W 095°01'1 0.7
2017-Feb-12 18:28N 29°42' W 095°03'0 0.0
2017-Feb-12 17:32N 29°42' W 095°03'0 0.0
2017-Feb-11 18:26N 29°42' W 095°03'0 0.0
2017-Feb-11 10:27N 29°42' W 095°03'0 0.0
2017-Feb-11 09:27N 29°42' W 095°03'0 0.0
2017-Feb-11 08:26N 29°42' W 095°03'0 0.0
2017-Feb-11 07:23N 29°42' W 095°03'0 0.0
2017-Feb-11 06:28N 29°42' W 095°03'0 0.0
2017-Feb-11 02:09N 29°42' W 095°03'0 0.0
2017-Feb-11 01:29N 29°42' W 095°03'0 0.0
2017-Feb-11 00:19N 29°42' W 095°03'0 0.0
2017-Feb-10 23:33N 29°42' W 095°03'0 0.0
2017-Feb-10 22:34N 29°42' W 095°03'0 0.0
2017-Feb-10 21:33N 29°42' W 095°03'0 0.0
2017-Feb-10 20:34N 29°42' W 095°03'0 0.0
2017-Feb-10 19:34N 29°42' W 095°03'0 0.0
2017-Feb-10 18:34N 29°42' W 095°03'0 0.0
2017-Feb-10 17:34N 29°42' W 095°03'0 0.0
2017-Feb-10 16:33N 29°42' W 095°03'0 0.0
2017-Feb-10 15:34N 29°42' W 095°03'0 0.0
2017-Feb-10 14:34N 29°42' W 095°03'0 0.0
2017-Feb-10 13:34N 29°42' W 095°03'0 0.0
2017-Feb-10 05:22N 29°42' W 095°03'0 0.0
2017-Feb-10 00:15N 29°42' W 095°03'0 0.0
2017-Feb-09 23:33N 29°42' W 095°03'0 0.0
2017-Feb-09 22:33N 29°42' W 095°03'0 0.0
2017-Feb-09 21:33N 29°42' W 095°03'0 0.0
2017-Feb-09 20:33N 29°42' W 095°03'0 0.0
2017-Feb-09 19:33N 29°42' W 095°03'0 0.0
2017-Feb-09 18:33N 29°42' W 095°03'0 0.0
2017-Feb-09 17:33N 29°42' W 095°03'0 0.0
2017-Feb-09 16:33N 29°42' W 095°03'0 0.0
2017-Feb-09 15:33N 29°42' W 095°03'0 0.0
2017-Feb-09 14:33N 29°42' W 095°03'0 0.0
2017-Feb-09 13:34N 29°42' W 095°03'  

Dump ship's entire track history